createdAt,value
2023-02-11T00:00:54.465Z,-0.56
2023-02-11T00:03:21.171Z,-0.47
2023-02-11T00:05:59.830Z,-0.50
2023-02-11T00:08:26.745Z,-0.47
2023-02-11T00:10:57.968Z,-0.88
2023-02-11T00:13:25.238Z,-0.60
2023-02-11T00:15:52.054Z,-0.96
2023-02-11T00:18:18.853Z,-0.58
2023-02-11T00:20:45.494Z,-0.70
2023-02-11T00:23:12.180Z,-0.99
2023-02-11T00:25:43.861Z,-1.07
2023-02-11T00:28:11.460Z,-0.75
2023-02-11T00:30:41.105Z,-0.63
2023-02-11T00:33:08.518Z,-0.59
2023-02-11T00:35:38.214Z,-0.63
2023-02-11T00:38:07.483Z,-0.67
2023-02-11T00:40:34.048Z,-1.17
2023-02-11T00:43:00.681Z,-0.81
2023-02-11T00:45:28.705Z,-0.95
2023-02-11T00:47:55.287Z,-0.75
2023-02-11T00:50:22.284Z,-0.84
2023-02-11T00:52:48.941Z,-0.84
2023-02-11T00:55:16.103Z,-1.03
2023-02-11T00:57:42.937Z,-0.71
2023-02-11T01:00:12.676Z,-0.79
2023-02-11T01:02:39.536Z,-0.92
2023-02-11T01:05:06.717Z,-0.82
2023-02-11T01:07:33.401Z,-0.84
2023-02-11T01:10:00.012Z,-1.37
2023-02-11T01:12:29.620Z,-1.01
2023-02-11T01:14:57.929Z,-0.98
2023-02-11T01:17:24.604Z,-1.45
2023-02-11T01:19:51.353Z,-1.60
2023-02-11T01:22:18.030Z,-1.17
2023-02-11T01:24:46.588Z,-1.28
2023-02-11T01:27:13.281Z,-1.40
2023-02-11T01:29:39.971Z,-1.58
2023-02-11T01:32:06.616Z,-1.26
2023-02-11T01:34:33.170Z,-1.40
2023-02-11T01:37:00.369Z,-1.12
2023-02-11T01:39:29.162Z,-1.24
2023-02-11T01:41:55.763Z,-1.58
2023-02-11T01:44:32.496Z,-1.08
2023-02-11T01:46:59.575Z,-1.25
2023-02-11T01:49:33.082Z,-1.06
2023-02-11T01:52:19.593Z,-1.40
2023-02-11T01:55:10.960Z,-1.26
2023-02-11T01:57:41.608Z,-1.47
2023-02-11T02:00:14.110Z,-1.32
2023-02-11T02:02:58.514Z,-1.53
2023-02-11T02:05:37.289Z,-1.42
2023-02-11T02:08:11.461Z,-1.92
2023-02-11T02:10:41.748Z,-1.71
2023-02-11T02:13:08.798Z,-1.59
2023-02-11T02:15:41.238Z,-1.47
2023-02-11T02:18:32.508Z,-1.48
2023-02-11T02:21:34.478Z,-1.65
2023-02-11T02:24:12.541Z,-1.73
2023-02-11T02:27:01.883Z,-1.79
2023-02-11T02:30:09.812Z,-1.73
2023-02-11T02:33:22.601Z,-1.74
2023-02-11T02:36:07.864Z,-1.95
2023-02-11T02:38:50.884Z,-1.94
2023-02-11T02:41:21.329Z,-2.29
2023-02-11T02:43:49.768Z,-1.98
2023-02-11T02:46:19.091Z,-1.97
2023-02-11T02:48:46.339Z,-2.09
2023-02-11T02:51:47.220Z,-2.21
2023-02-11T02:54:44.839Z,-2.27
2023-02-11T02:57:17.405Z,-2.34
2023-02-11T03:00:14.848Z,-2.44
2023-02-11T03:02:59.904Z,-2.46
2023-02-11T03:05:41.711Z,-2.49
2023-02-11T03:08:31.686Z,-2.51
2023-02-11T03:11:01.352Z,-2.69
2023-02-11T03:13:33.625Z,-2.69
2023-02-11T03:16:08.751Z,-2.84
2023-02-11T03:18:37.123Z,-2.52
2023-02-11T03:21:07.349Z,-2.70
2023-02-11T03:23:57.664Z,-2.32
2023-02-11T03:26:37.952Z,-2.28
2023-02-11T03:29:21.560Z,-2.76
2023-02-11T03:32:12.294Z,-2.26
2023-02-11T03:34:55.496Z,-2.76
2023-02-11T03:37:30.825Z,-2.36
2023-02-11T03:40:02.310Z,-2.31
2023-02-11T03:42:36.480Z,-2.30
2023-02-11T03:45:09.840Z,-2.32
2023-02-11T03:47:40.166Z,-2.46
2023-02-11T03:50:09.033Z,-2.25
2023-02-11T03:52:37.862Z,-2.22
2023-02-11T03:55:19.520Z,-2.21
2023-02-11T03:57:47.485Z,-2.33
2023-02-11T04:00:15.133Z,-2.49
2023-02-11T04:02:43.275Z,-2.46
2023-02-11T04:05:12.579Z,-2.71
2023-02-11T04:07:39.247Z,-2.56
2023-02-11T04:10:06.543Z,-2.68
2023-02-11T04:12:33.254Z,-2.87
2023-02-11T04:14:59.875Z,-2.70
2023-02-11T04:17:26.545Z,-2.71
2023-02-11T04:19:53.075Z,-2.91
2023-02-11T04:22:19.723Z,-3.20
2023-02-11T04:24:46.355Z,-2.82
2023-02-11T04:27:13.059Z,-2.76
2023-02-11T04:29:39.689Z,-2.62
2023-02-11T04:32:06.315Z,-2.64
2023-02-11T04:34:33.353Z,-2.85
2023-02-11T04:36:59.977Z,-2.72
2023-02-11T04:39:26.582Z,-3.17
2023-02-11T04:41:53.220Z,-2.74
2023-02-11T04:44:19.893Z,-2.80
2023-02-11T04:46:46.863Z,-2.98
2023-02-11T04:49:15.092Z,-2.79
2023-02-11T04:51:42.433Z,-3.06
2023-02-11T04:54:09.001Z,-2.85
2023-02-11T04:56:35.608Z,-3.43
2023-02-11T04:59:02.536Z,-3.33
2023-02-11T05:01:29.234Z,-3.06
2023-02-11T05:03:56.583Z,-2.87
2023-02-11T05:06:23.319Z,-3.37
2023-02-11T05:08:50.101Z,-2.87
2023-02-11T05:11:19.606Z,-3.03
2023-02-11T05:13:47.230Z,-2.96
2023-02-11T05:16:16.341Z,-2.83
2023-02-11T05:18:44.233Z,-2.82
2023-02-11T05:21:14.917Z,-2.81
2023-02-11T05:23:42.220Z,-3.10
2023-02-11T05:26:10.036Z,-2.78
2023-02-11T05:28:36.808Z,-3.22
2023-02-11T05:31:03.733Z,-3.32
2023-02-11T05:33:30.630Z,-2.88
2023-02-11T05:36:06.761Z,-3.17
2023-02-11T05:38:33.957Z,-3.17
2023-02-11T05:41:01.100Z,-2.86
2023-02-11T05:43:27.896Z,-2.84
2023-02-11T05:45:54.886Z,-3.03
2023-02-11T05:48:21.613Z,-3.14
2023-02-11T05:50:48.206Z,-2.87
2023-02-11T05:53:14.868Z,-2.96
2023-02-11T05:55:41.603Z,-3.38
2023-02-11T05:58:08.418Z,-2.87
2023-02-11T06:00:35.166Z,-2.93
2023-02-11T06:03:01.824Z,-2.90
2023-02-11T06:05:28.362Z,-3.06
2023-02-11T06:07:55.003Z,-3.21
2023-02-11T06:10:22.072Z,-3.09
2023-02-11T06:12:48.825Z,-3.22
2023-02-11T06:15:15.498Z,-3.20
2023-02-11T06:17:42.078Z,-3.53
2023-02-11T06:20:10.525Z,-3.20
2023-02-11T06:22:37.589Z,-3.21
2023-02-11T06:25:05.752Z,-3.39
2023-02-11T06:27:32.528Z,-3.75
2023-02-11T06:29:59.142Z,-3.29
2023-02-11T06:32:45.492Z,-3.54
2023-02-11T06:35:14.400Z,-3.31
2023-02-11T06:37:42.177Z,-3.17
2023-02-11T06:40:10.416Z,-3.71
2023-02-11T06:42:39.147Z,-3.22
2023-02-11T06:45:09.072Z,-3.15
2023-02-11T06:47:35.972Z,-3.40
2023-02-11T06:50:03.026Z,-3.25
2023-02-11T06:52:29.683Z,-3.32
2023-02-11T06:54:56.357Z,-3.10
2023-02-11T06:57:22.912Z,-2.88
2023-02-11T06:59:49.483Z,-2.93
2023-02-11T07:02:16.763Z,-2.80
2023-02-11T07:04:44.120Z,-2.88
2023-02-11T07:07:10.732Z,-3.08
2023-02-11T07:09:37.390Z,-2.53
2023-02-11T07:12:04.303Z,-2.19
2023-02-11T07:14:30.921Z,-2.01
2023-02-11T07:16:58.009Z,-2.05
2023-02-11T07:19:24.617Z,-1.57
2023-02-11T07:21:51.250Z,-1.57
2023-02-11T07:24:17.834Z,-1.15
2023-02-11T07:26:44.798Z,-1.29
2023-02-11T07:29:11.649Z,-1.15
2023-02-11T07:31:40.461Z,-0.47
2023-02-11T07:34:07.086Z,-0.29
2023-02-11T07:36:33.709Z,-0.12
2023-02-11T07:39:00.316Z,-0.57
2023-02-11T07:41:27.878Z,-0.17
2023-02-11T07:43:54.650Z,0.05
2023-02-11T07:46:25.198Z,0.40
2023-02-11T07:48:52.760Z,0.68
2023-02-11T07:51:30.893Z,1.05
2023-02-11T07:53:59.837Z,1.55
2023-02-11T07:56:27.401Z,2.09
2023-02-11T07:58:54.867Z,2.10
2023-02-11T08:01:25.345Z,2.63
2023-02-11T08:03:52.673Z,2.95
2023-02-11T08:06:21.126Z,3.25
2023-02-11T08:08:48.115Z,3.63
2023-02-11T08:11:25.944Z,3.95
2023-02-11T08:13:53.654Z,4.30
2023-02-11T08:16:29.536Z,4.67
2023-02-11T08:18:58.087Z,4.97
2023-02-11T08:21:25.860Z,4.89
2023-02-11T08:23:53.489Z,4.77
2023-02-11T08:26:31.734Z,5.62
2023-02-11T08:28:58.664Z,5.90
2023-02-11T08:31:28.611Z,6.06
2023-02-11T08:33:57.889Z,6.80
2023-02-11T08:36:27.173Z,6.96
2023-02-11T08:39:18.124Z,6.41
2023-02-11T08:41:51.103Z,6.37
2023-02-11T08:44:19.451Z,7.00
2023-02-11T08:46:46.806Z,7.00
2023-02-11T08:49:14.529Z,7.58
2023-02-11T08:51:41.500Z,7.85
2023-02-11T08:54:09.794Z,8.06
2023-02-11T08:56:37.836Z,7.71
2023-02-11T08:59:05.270Z,7.71
2023-02-11T09:01:32.468Z,7.14
2023-02-11T09:03:59.905Z,7.52
2023-02-11T09:06:27.880Z,8.23
2023-02-11T09:08:57.128Z,8.55
2023-02-11T09:11:30.399Z,8.39
2023-02-11T09:13:57.329Z,8.52
2023-02-11T09:16:26.855Z,8.92
2023-02-11T09:18:54.200Z,8.97
2023-02-11T09:21:20.824Z,8.35
2023-02-11T09:23:48.051Z,8.80
2023-02-11T09:26:18.572Z,8.89
2023-02-11T09:28:45.717Z,8.95
2023-02-11T09:31:15.777Z,8.31
2023-02-11T09:33:47.812Z,8.74
2023-02-11T09:36:17.512Z,9.19
2023-02-11T09:38:44.510Z,9.59
2023-02-11T09:41:22.977Z,10.23
2023-02-11T09:43:53.400Z,10.40
2023-02-11T09:46:21.919Z,10.44
2023-02-11T09:48:50.504Z,10.99
2023-02-11T09:51:29.724Z,9.95
2023-02-11T09:54:02.636Z,9.80
2023-02-11T09:56:31.163Z,9.21
2023-02-11T09:58:58.021Z,9.21
2023-02-11T10:01:33.296Z,9.24
2023-02-11T10:04:15.280Z,9.60
2023-02-11T10:06:47.036Z,9.79
2023-02-11T10:09:47.452Z,9.02
2023-02-11T10:12:35.344Z,9.33
2023-02-11T10:15:14.093Z,9.98
2023-02-11T10:18:07.720Z,9.93
2023-02-11T10:20:47.532Z,10.70
2023-02-11T10:23:21.141Z,11.78
2023-02-11T10:25:54.416Z,11.07
2023-02-11T10:28:24.957Z,12.08
2023-02-11T10:31:00.933Z,12.70
2023-02-11T10:33:42.087Z,13.32
2023-02-11T10:36:11.960Z,12.70
2023-02-11T10:38:38.753Z,13.45
2023-02-11T10:41:06.692Z,13.30
2023-02-11T10:43:34.605Z,12.04
2023-02-11T10:46:04.750Z,12.11
2023-02-11T10:48:52.775Z,12.94
2023-02-11T10:51:33.617Z,13.69
2023-02-11T10:54:19.290Z,13.99
2023-02-11T10:56:52.108Z,15.28
2023-02-11T10:59:22.137Z,15.52
2023-02-11T11:01:52.867Z,13.96
2023-02-11T11:04:45.344Z,14.31
2023-02-11T11:07:14.372Z,14.56
2023-02-11T11:10:25.161Z,14.63
2023-02-11T11:12:51.830Z,14.01
2023-02-11T11:15:26.889Z,14.03
2023-02-11T11:18:22.025Z,13.64
2023-02-11T11:20:59.598Z,14.35
2023-02-11T11:23:28.262Z,13.33
2023-02-11T11:26:07.275Z,12.52
2023-02-11T11:28:41.876Z,12.81
2023-02-11T11:31:20.377Z,14.35
2023-02-11T11:33:48.152Z,15.27
2023-02-11T11:36:22.811Z,15.73
2023-02-11T11:38:54.356Z,16.00
2023-02-11T11:41:33.214Z,17.06
2023-02-11T11:44:17.430Z,16.89
2023-02-11T11:46:46.267Z,17.88
2023-02-11T11:49:29.922Z,17.27
2023-02-11T11:52:11.865Z,16.97
2023-02-11T11:54:39.288Z,16.61
2023-02-11T11:57:15.133Z,17.00
2023-02-11T11:59:41.945Z,16.66
2023-02-11T12:02:19.538Z,17.24
2023-02-11T12:04:55.360Z,17.78
2023-02-11T12:07:43.965Z,17.89
2023-02-11T12:10:19.754Z,17.14
2023-02-11T12:12:55.688Z,16.53
2023-02-11T12:15:40.097Z,16.71
2023-02-11T12:18:16.606Z,17.17
2023-02-11T12:21:06.055Z,17.31
2023-02-11T12:23:38.578Z,17.94
2023-02-11T12:26:22.390Z,17.87
2023-02-11T12:28:57.970Z,18.99
2023-02-11T12:31:31.484Z,18.12
2023-02-11T12:34:12.217Z,19.06
2023-02-11T12:36:56.103Z,18.92
2023-02-11T12:39:41.465Z,19.46
2023-02-11T12:42:45.662Z,19.59
2023-02-11T12:45:22.689Z,18.81
2023-02-11T12:48:04.584Z,18.83
2023-02-11T12:50:44.692Z,19.25
2023-02-11T12:53:17.374Z,19.05
2023-02-11T12:55:48.929Z,19.68
2023-02-11T12:58:25.446Z,19.37
2023-02-11T13:01:06.060Z,19.76
2023-02-11T13:03:40.190Z,19.79
2023-02-11T13:06:12.837Z,19.62
2023-02-11T13:08:53.005Z,19.85
2023-02-11T13:11:27.591Z,19.38
2023-02-11T13:14:17.134Z,18.20
2023-02-11T13:16:49.874Z,18.66
2023-02-11T13:19:48.837Z,18.88
2023-02-11T13:22:28.439Z,19.21
2023-02-11T13:25:21.382Z,19.26
2023-02-11T13:27:58.959Z,19.15
2023-02-11T13:30:34.332Z,18.88
2023-02-11T13:33:01.018Z,19.63
2023-02-11T13:36:09.682Z,19.39
2023-02-11T13:38:37.531Z,20.93
2023-02-11T13:41:13.444Z,21.17
2023-02-11T13:43:40.802Z,20.47
2023-02-11T13:46:11.607Z,20.52
2023-02-11T13:48:46.255Z,21.35
2023-02-11T13:51:17.563Z,22.34
2023-02-11T13:53:51.816Z,20.90
2023-02-11T13:56:27.672Z,21.75
2023-02-11T13:58:54.329Z,20.45
2023-02-11T14:01:42.420Z,21.16
2023-02-11T14:04:41.534Z,21.23
2023-02-11T14:07:42.152Z,19.91
2023-02-11T14:10:42.845Z,21.35
2023-02-11T14:13:32.822Z,20.49
2023-02-11T14:16:08.779Z,20.17
2023-02-11T14:18:44.241Z,20.29
2023-02-11T14:21:13.401Z,21.38
2023-02-11T14:23:40.796Z,21.17
2023-02-11T14:26:20.134Z,20.49
2023-02-11T14:28:58.826Z,21.21
2023-02-11T14:31:33.920Z,21.75
2023-02-11T14:34:42.448Z,21.54
2023-02-11T14:37:18.215Z,20.36
2023-02-11T14:40:15.949Z,20.20
2023-02-11T14:42:42.700Z,20.04
2023-02-11T14:45:15.079Z,20.23
2023-02-11T14:47:52.664Z,20.44
2023-02-11T14:50:43.173Z,21.51
2023-02-11T14:53:19.838Z,22.38
2023-02-11T14:55:50.804Z,22.17
2023-02-11T14:58:26.993Z,21.90
2023-02-11T15:01:01.115Z,21.58
2023-02-11T15:03:36.554Z,22.05
2023-02-11T15:06:07.852Z,22.57
2023-02-11T15:08:38.274Z,22.15
2023-02-11T15:11:12.044Z,22.29
2023-02-11T15:13:39.117Z,21.78
2023-02-11T15:16:09.863Z,22.40
2023-02-11T15:18:46.362Z,22.12
2023-02-11T15:21:19.870Z,21.87
2023-02-11T15:23:55.551Z,22.36
2023-02-11T15:26:22.696Z,21.75
2023-02-11T15:28:51.992Z,21.90
2023-02-11T15:31:23.213Z,20.66
2023-02-11T15:33:51.022Z,20.90
2023-02-11T15:36:19.028Z,20.77
2023-02-11T15:38:45.860Z,21.32
2023-02-11T15:41:37.213Z,21.50
2023-02-11T15:44:04.349Z,21.46
2023-02-11T15:46:36.677Z,20.97
2023-02-11T15:49:03.939Z,21.30
2023-02-11T15:51:34.519Z,20.61
2023-02-11T15:54:16.358Z,20.64
2023-02-11T15:56:45.399Z,20.66
2023-02-11T15:59:35.979Z,20.76
2023-02-11T16:02:27.642Z,20.09
2023-02-11T16:04:57.338Z,19.89
2023-02-11T16:07:52.091Z,19.96
2023-02-11T16:10:20.979Z,19.79
2023-02-11T16:12:57.347Z,19.37
2023-02-11T16:15:42.519Z,18.43
2023-02-11T16:18:33.969Z,17.98
2023-02-11T16:21:05.322Z,17.32
2023-02-11T16:23:37.035Z,17.65
2023-02-11T16:26:26.684Z,17.60
2023-02-11T16:28:53.800Z,17.17
2023-02-11T16:31:20.590Z,16.20
2023-02-11T16:33:47.233Z,15.92
2023-02-11T16:36:17.170Z,15.20
2023-02-11T16:38:43.882Z,14.36
2023-02-11T16:41:14.597Z,13.78
2023-02-11T16:43:41.308Z,13.08
2023-02-11T16:46:09.216Z,12.56
2023-02-11T16:48:36.036Z,12.27
2023-02-11T16:51:03.417Z,11.89
2023-02-11T16:53:30.027Z,11.34
2023-02-11T16:55:56.563Z,11.51
2023-02-11T16:58:23.262Z,11.08
2023-02-11T17:00:50.497Z,10.96
2023-02-11T17:03:22.863Z,10.83
2023-02-11T17:05:55.690Z,10.42
2023-02-11T17:08:22.809Z,10.05
2023-02-11T17:10:49.738Z,10.38
2023-02-11T17:13:16.718Z,10.12
2023-02-11T17:15:43.266Z,10.00
2023-02-11T17:18:13.658Z,10.04
2023-02-11T17:20:41.016Z,9.62
2023-02-11T17:23:07.853Z,9.49
2023-02-11T17:25:34.468Z,9.51
2023-02-11T17:28:01.083Z,9.31
2023-02-11T17:30:27.830Z,9.09
2023-02-11T17:32:54.740Z,8.99
2023-02-11T17:35:21.436Z,8.91
2023-02-11T17:37:48.105Z,8.73
2023-02-11T17:40:15.216Z,8.78
2023-02-11T17:42:42.275Z,8.72
2023-02-11T17:45:10.075Z,8.58
2023-02-11T17:47:36.697Z,8.48
2023-02-11T17:50:03.682Z,8.17
2023-02-11T17:52:30.394Z,8.23
2023-02-11T17:54:58.052Z,8.40
2023-02-11T17:57:24.668Z,8.31
2023-02-11T17:59:51.487Z,8.21
2023-02-11T18:02:18.023Z,8.05
2023-02-11T18:04:44.743Z,8.16
2023-02-11T18:07:11.360Z,7.78
2023-02-11T18:09:40.088Z,7.15
2023-02-11T18:12:07.619Z,7.47
2023-02-11T18:14:34.282Z,7.30
2023-02-11T18:17:00.900Z,7.41
2023-02-11T18:19:30.498Z,7.42
2023-02-11T18:22:00.788Z,7.22
2023-02-11T18:24:27.715Z,7.31
2023-02-11T18:26:54.256Z,6.88
2023-02-11T18:29:20.973Z,7.18
2023-02-11T18:31:47.632Z,7.07
2023-02-11T18:34:15.765Z,6.63
2023-02-11T18:36:42.593Z,6.57
2023-02-11T18:39:09.384Z,6.42
2023-02-11T18:41:36.009Z,6.19
2023-02-11T18:44:04.579Z,6.57
2023-02-11T18:46:31.448Z,6.49
2023-02-11T18:48:58.316Z,6.63
2023-02-11T18:51:25.433Z,6.60
2023-02-11T18:53:52.426Z,6.54
2023-02-11T18:56:21.754Z,6.44
2023-02-11T18:58:49.654Z,5.94
2023-02-11T19:01:20.490Z,6.37
2023-02-11T19:03:48.257Z,5.95
2023-02-11T19:06:20.934Z,6.09
2023-02-11T19:08:47.998Z,6.12
2023-02-11T19:11:17.252Z,5.86
2023-02-11T19:13:44.239Z,5.79
2023-02-11T19:16:12.433Z,5.84
2023-02-11T19:18:39.106Z,5.54
2023-02-11T19:21:10.276Z,5.09
2023-02-11T19:23:37.888Z,5.69
2023-02-11T19:26:06.291Z,5.40
2023-02-11T19:28:35.234Z,5.04
2023-02-11T19:31:06.625Z,4.71
2023-02-11T19:33:33.412Z,4.95
2023-02-11T19:36:05.048Z,4.71
2023-02-11T19:38:31.701Z,4.87
2023-02-11T19:40:58.464Z,4.67
2023-02-11T19:43:25.767Z,5.02
2023-02-11T19:45:57.240Z,5.15
2023-02-11T19:48:25.191Z,5.03
2023-02-11T19:50:51.821Z,5.04
2023-02-11T19:53:18.577Z,4.74
2023-02-11T19:55:45.304Z,4.66
2023-02-11T19:58:12.076Z,4.97
2023-02-11T20:00:39.258Z,4.53
2023-02-11T20:03:06.145Z,4.75
2023-02-11T20:05:32.891Z,4.76
2023-02-11T20:07:59.503Z,4.76
2023-02-11T20:10:26.179Z,4.61
2023-02-11T20:12:52.852Z,4.60
2023-02-11T20:15:19.428Z,4.60
2023-02-11T20:17:46.084Z,4.03
2023-02-11T20:20:12.874Z,4.54
2023-02-11T20:22:39.558Z,4.31
2023-02-11T20:25:06.542Z,4.02
2023-02-11T20:27:33.347Z,4.22
2023-02-11T20:29:59.921Z,3.63
2023-02-11T20:32:26.688Z,3.73
2023-02-11T20:34:53.358Z,3.80
2023-02-11T20:37:19.949Z,3.63
2023-02-11T20:39:46.526Z,3.98
2023-02-11T20:42:14.249Z,3.96
2023-02-11T20:44:41.092Z,3.60
2023-02-11T20:47:07.688Z,3.46
2023-02-11T20:49:34.228Z,3.40
2023-02-11T20:52:00.835Z,3.41
2023-02-11T20:54:27.625Z,3.50
2023-02-11T20:56:55.891Z,3.80
2023-02-11T20:59:22.811Z,3.76
2023-02-11T21:01:55.685Z,3.60
2023-02-11T21:04:30.342Z,3.83
2023-02-11T21:07:00.200Z,4.14
2023-02-11T21:09:30.201Z,4.10
2023-02-11T21:11:57.204Z,4.07
2023-02-11T21:14:25.179Z,3.86
2023-02-11T21:16:52.478Z,3.87
2023-02-11T21:19:19.139Z,3.45
2023-02-11T21:21:45.879Z,4.03
2023-02-11T21:24:13.044Z,3.97
2023-02-11T21:26:39.803Z,4.17
2023-02-11T21:29:07.844Z,3.90
2023-02-11T21:31:36.031Z,3.75
2023-02-11T21:34:03.429Z,3.83
2023-02-11T21:36:30.406Z,3.52
2023-02-11T21:38:57.185Z,3.85
2023-02-11T21:41:24.745Z,3.69
2023-02-11T21:43:51.884Z,3.55
2023-02-11T21:46:20.406Z,3.33
2023-02-11T21:48:47.829Z,2.67
2023-02-11T21:51:20.272Z,3.00
2023-02-11T21:53:47.304Z,3.10
2023-02-11T21:56:17.333Z,2.86
2023-02-11T21:58:44.838Z,2.79
2023-02-11T22:01:14.564Z,2.86
2023-02-11T22:03:41.690Z,2.93
2023-02-11T22:06:14.261Z,2.92
2023-02-11T22:08:41.407Z,2.77
2023-02-11T22:11:11.095Z,2.63
2023-02-11T22:13:38.969Z,2.87
2023-02-11T22:16:09.917Z,2.74
2023-02-11T22:18:37.156Z,2.47
2023-02-11T22:21:12.696Z,2.60
2023-02-11T22:23:40.162Z,2.49
2023-02-11T22:26:15.892Z,2.45
2023-02-11T22:28:42.982Z,2.25
2023-02-11T22:31:21.573Z,2.27
2023-02-11T22:33:48.518Z,2.59
2023-02-11T22:36:24.287Z,2.13
2023-02-11T22:38:51.238Z,2.60
2023-02-11T22:41:19.257Z,2.21
2023-02-11T22:43:46.135Z,2.44
2023-02-11T22:46:15.486Z,2.03
2023-02-11T22:48:42.882Z,2.15
2023-02-11T22:51:13.213Z,1.84
2023-02-11T22:53:40.254Z,1.99
2023-02-11T22:56:09.873Z,2.12
2023-02-11T22:58:36.771Z,1.83
2023-02-11T23:01:04.863Z,2.15
2023-02-11T23:03:31.913Z,2.21
2023-02-11T23:05:59.390Z,2.13
2023-02-11T23:08:27.223Z,2.09
2023-02-11T23:10:53.926Z,2.20
2023-02-11T23:13:20.874Z,2.18
2023-02-11T23:15:47.984Z,1.68
2023-02-11T23:18:15.432Z,2.17
2023-02-11T23:20:43.537Z,2.09
2023-02-11T23:23:10.292Z,2.13
2023-02-11T23:25:43.463Z,2.10
2023-02-11T23:28:11.681Z,1.97
2023-02-11T23:30:38.666Z,1.99
2023-02-11T23:33:05.374Z,1.56
2023-02-11T23:35:32.007Z,1.24
2023-02-11T23:37:58.675Z,1.74
2023-02-11T23:40:25.229Z,1.39
2023-02-11T23:42:51.909Z,1.58
2023-02-11T23:45:18.701Z,1.39
2023-02-11T23:47:45.817Z,1.32
2023-02-11T23:50:12.413Z,1.42
2023-02-11T23:52:39.059Z,0.58
2023-02-11T23:55:05.938Z,0.77
2023-02-11T23:57:33.113Z,1.17
2023-02-11T23:59:59.829Z,0.46
